Stone Harbor, New Jersey
Current Conditions -  °F | °C
As of 2:35 PM on Monday 22 Dec 2014 (Local Time) from KWWD Reporting Station
Overcast Overcast  
Wind Chill: 38°   Ceiling: 4600
Heat Index: 43°   Visibility: 10mi
Dew Point: 36°   Wind: 8mph
Humidity: 76%   Direction: 40°NE
Pressure: 30.16"   Gusts: NA
Location:  39.05°N, 74.76°W
Report Text: KWWD 221935Z AUTO 04007KT 10SM BKN046 OVC055 06/02 A3016 RMK AO1 P0001
Loading
Personal Weather Stations






























Interactive Weather Map New forecast layout! Learn more

10-Day Weather Forecast

Advertisements
Track Severe Weather on mobile